Time;durP1;ratioP1;P1;durP2;ratioP2;P2;SDS_P1;SDS_P2;PMS_P1;PMS_P2;Temp;Humidity;BMP_temperature;BMP_pressure;BME280_temperature;BME280_humidity;BME280_pressure;Samples;Min_cycle;Max_cycle;Signal;HPM_P1;HPM_P2
2022/02/16 00:00:58;;;;;;;26.13;7.95;;;9.30;99.90;;;;;;5018304;28;20046;-70
2022/02/16 00:03:25;;;;;;;22.58;7.20;;;9.40;99.90;;;;;;5011080;28;20053;-70
2022/02/16 00:05:52;;;;;;;22.05;6.90;;;9.40;99.90;;;;;;5031607;28;20052;-72
2022/02/16 00:08:19;;;;;;;19.70;6.57;;;9.40;99.90;;;;;;5009432;28;20072;-70
2022/02/16 00:10:46;;;;;;;19.08;5.70;;;9.40;99.90;;;;;;5014304;28;20050;-70
2022/02/16 00:13:13;;;;;;;16.73;5.28;;;9.30;99.90;;;;;;5012228;28;20061;-70
2022/02/16 00:15:40;;;;;;;22.17;5.90;;;9.30;99.90;;;;;;5012964;28;20516;-70
2022/02/16 00:18:07;;;;;;;20.23;5.93;;;9.40;99.90;;;;;;4991651;28;20049;-70
2022/02/16 00:20:34;;;;;;;18.70;4.85;;;9.30;99.90;;;;;;4996729;28;20046;-70
2022/02/16 00:23:02;;;;;;;19.95;5.53;;;9.30;99.90;;;;;;5014528;28;20046;-70
2022/02/16 00:25:29;;;;;;;16.17;5.05;;;9.30;99.90;;;;;;4994841;28;20038;-72
2022/02/16 00:27:56;;;;;;;17.98;5.18;;;9.30;99.90;;;;;;5010958;28;20497;-71
2022/02/16 00:30:25;;;;;;;19.42;5.53;;;9.30;99.90;;;;;;4993123;28;20046;-72
2022/02/16 00:32:52;;;;;;;14.02;5.25;;;9.30;99.90;;;;;;5030901;28;20049;-70
2022/02/16 00:35:19;;;;;;;15.88;4.10;;;9.30;99.90;;;;;;5026887;28;20504;-70
2022/02/16 00:37:46;;;;;;;18.58;4.88;;;9.30;99.90;;;;;;5026143;28;20058;-70
2022/02/16 00:40:14;;;;;;;18.98;4.07;;;9.30;99.90;;;;;;5029557;28;20059;-70
2022/02/16 00:42:41;;;;;;;13.35;5.47;;;9.30;99.90;;;;;;5028445;28;20495;-70
2022/02/16 00:45:08;;;;;;;18.10;5.07;;;9.30;99.90;;;;;;5028699;28;20480;-71
2022/02/16 00:47:35;;;;;;;19.20;5.18;;;9.30;99.90;;;;;;5010466;28;20536;-71
2022/02/16 00:50:03;;;;;;;10.40;3.70;;;9.20;99.90;;;;;;5010443;28;20046;-70
2022/02/16 00:52:31;;;;;;;12.23;3.60;;;9.20;99.90;;;;;;4991912;28;20042;-71
2022/02/16 00:54:58;;;;;;;11.10;3.58;;;9.30;99.90;;;;;;5025064;28;20041;-70
2022/02/16 00:57:27;;;;;;;7.77;3.30;;;9.30;99.90;;;;;;5014001;28;20180;-70
2022/02/16 00:59:55;;;;;;;9.90;3.03;;;9.20;99.90;;;;;;5017828;28;20054;-70
2022/02/16 01:02:22;;;;;;;6.93;3.35;;;9.30;99.90;;;;;;5011395;28;20405;-71
2022/02/16 01:04:49;;;;;;;9.70;2.80;;;9.30;99.90;;;;;;5011269;28;20054;-70
2022/02/16 01:07:16;;;;;;;7.57;2.50;;;9.30;99.90;;;;;;5042018;28;20050;-70
2022/02/16 01:09:44;;;;;;;9.00;3.47;;;9.30;99.90;;;;;;5025651;28;20057;-71
2022/02/16 01:12:11;;;;;;;7.82;2.90;;;9.40;99.90;;;;;;5009195;28;20042;-70
2022/02/16 01:14:39;;;;;;;3.78;1.90;;;9.40;99.90;;;;;;5024278;28;20053;-70
2022/02/16 01:17:06;;;;;;;4.70;2.05;;;9.40;99.90;;;;;;5015027;28;20061;-71
2022/02/16 01:19:33;;;;;;;4.53;1.77;;;9.40;99.90;;;;;;5025802;28;20412;-70
2022/02/16 01:22:02;;;;;;;4.82;2.17;;;9.40;99.90;;;;;;5025895;28;20053;-71
2022/02/16 01:24:29;;;;;;;4.72;1.98;;;9.50;99.90;;;;;;5022071;28;20108;-70
2022/02/16 01:26:57;;;;;;;3.50;2.22;;;9.50;99.90;;;;;;5015005;28;20500;-71
2022/02/16 01:29:24;;;;;;;2.35;1.45;;;9.60;99.90;;;;;;5015546;28;20397;-70
2022/02/16 01:31:51;;;;;;;3.67;1.67;;;9.60;99.90;;;;;;5018985;28;20049;-71
2022/02/16 01:34:18;;;;;;;6.15;1.20;;;9.70;99.90;;;;;;5029776;28;20497;-70
2022/02/16 01:36:45;;;;;;;3.35;1.40;;;9.70;99.90;;;;;;5031398;28;20504;-71
2022/02/16 01:39:12;;;;;;;1.52;0.98;;;9.70;99.90;;;;;;5030612;28;20051;-70
2022/02/16 01:41:39;;;;;;;2.35;1.35;;;9.80;99.90;;;;;;5023953;28;20408;-70
2022/02/16 01:44:07;;;;;;;1.52;1.15;;;9.90;99.90;;;;;;5014887;28;20055;-70
2022/02/16 01:46:50;;;;;;;1.90;1.25;;;10.00;99.90;;;;;;5019192;28;20100;-71
2022/02/16 01:49:17;;;;;;;1.58;1.00;;;10.00;99.90;;;;;;5038651;28;20058;-70
2022/02/16 01:51:44;;;;;;;1.25;1.00;;;10.10;99.90;;;;;;5019904;28;20054;-70
2022/02/16 01:54:12;;;;;;;1.13;0.90;;;10.10;99.90;;;;;;5013975;28;20046;-70
2022/02/16 01:56:47;;;;;;;1.38;0.80;;;10.20;99.90;;;;;;5015651;28;20139;-70
2022/02/16 01:59:19;;;;;;;1.52;0.70;;;10.20;99.90;;;;;;5027950;28;20316;-70
2022/02/16 02:01:46;;;;;;;1.38;0.70;;;10.20;99.90;;;;;;5015056;28;20049;-70
2022/02/16 02:04:17;;;;;;;1.08;0.80;;;10.30;99.90;;;;;;5013016;28;20046;-70
2022/02/16 02:06:44;;;;;;;1.23;0.75;;;10.40;99.90;;;;;;5041482;28;20046;-70
2022/02/16 02:09:11;;;;;;;0.80;0.60;;;10.40;99.90;;;;;;5014893;28;20054;-71
2022/02/16 02:11:38;;;;;;;0.95;0.80;;;10.40;99.90;;;;;;5024067;28;20037;-70
2022/02/16 02:14:06;;;;;;;1.58;1.00;;;10.50;99.90;;;;;;5020375;28;20466;-71
2022/02/16 02:16:34;;;;;;;3.47;0.95;;;10.50;99.90;;;;;;5018022;28;20409;-70
2022/02/16 02:19:01;;;;;;;1.02;0.90;;;10.50;99.90;;;;;;5014906;28;20080;-70
2022/02/16 02:21:27;;;;;;;1.70;1.08;;;10.50;99.90;;;;;;5014155;28;20165;-70
2022/02/16 02:23:56;;;;;;;1.38;0.80;;;10.50;99.90;;;;;;5018294;28;20049;-71
2022/02/16 02:26:23;;;;;;;1.20;0.80;;;10.60;99.90;;;;;;5028986;28;20057;-71
2022/02/16 02:28:51;;;;;;;3.13;0.85;;;10.60;99.90;;;;;;5030721;28;20053;-70
2022/02/16 02:31:32;;;;;;;3.13;1.55;;;10.60;99.90;;;;;;4994372;28;20485;-70
2022/02/16 02:34:00;;;;;;;1.25;0.80;;;10.60;99.90;;;;;;5043779;28;20050;-71
2022/02/16 02:36:27;;;;;;;2.47;1.10;;;10.70;99.90;;;;;;5032252;28;20072;-70
2022/02/16 02:38:54;;;;;;;1.98;1.00;;;10.70;99.90;;;;;;5030575;28;20053;-72
2022/02/16 02:41:22;;;;;;;3.55;1.55;;;10.70;99.90;;;;;;5028979;28;20061;-70
2022/02/16 02:43:49;;;;;;;2.78;0.90;;;10.80;99.90;;;;;;5021204;28;20050;-70
2022/02/16 02:46:17;;;;;;;1.45;0.90;;;10.80;99.90;;;;;;5018859;28;20121;-70
2022/02/16 02:48:44;;;;;;;1.73;1.20;;;10.80;99.90;;;;;;5006890;28;20068;-70
2022/02/16 02:51:11;;;;;;;2.67;1.05;;;10.80;99.90;;;;;;5015883;28;20041;-72
2022/02/16 02:53:38;;;;;;;1.05;0.77;;;10.80;99.90;;;;;;4992852;28;20052;-70
2022/02/16 02:56:05;;;;;;;3.75;0.98;;;10.80;99.90;;;;;;5006892;28;20482;-70
2022/02/16 02:58:32;;;;;;;5.18;1.33;;;10.90;99.90;;;;;;5016056;28;20049;-70
2022/02/16 03:00:59;;;;;;;1.85;0.90;;;10.90;99.90;;;;;;5047393;28;20095;-70
2022/02/16 03:03:27;;;;;;;2.60;0.80;;;10.90;99.90;;;;;;5019981;28;20080;-70
2022/02/16 03:05:54;;;;;;;3.75;1.15;;;11.00;99.90;;;;;;5031269;28;20504;-70
2022/02/16 03:08:21;;;;;;;1.98;0.80;;;11.00;99.90;;;;;;5014712;28;20050;-70
2022/02/16 03:10:48;;;;;;;1.98;0.88;;;11.00;99.90;;;;;;5014543;28;20061;-70
2022/02/16 03:13:23;;;;;;;4.57;1.55;;;11.10;99.90;;;;;;5015292;28;20050;-70
2022/02/16 03:15:52;;;;;;;3.50;1.10;;;11.10;99.90;;;;;;5029146;28;20553;-70
2022/02/16 03:18:22;;;;;;;4.00;1.48;;;11.10;99.90;;;;;;5014832;28;20512;-70
2022/02/16 03:20:50;;;;;;;2.40;1.20;;;11.10;99.90;;;;;;5045748;28;20050;-70
2022/02/16 03:23:17;;;;;;;1.80;1.20;;;11.20;99.90;;;;;;5024987;28;20092;-70
2022/02/16 03:25:44;;;;;;;5.32;1.20;;;11.20;99.90;;;;;;5029405;28;20456;-70
2022/02/16 03:28:11;;;;;;;3.92;1.15;;;11.30;99.90;;;;;;5031913;28;20052;-70
2022/02/16 03:30:38;;;;;;;2.28;0.93;;;11.30;99.90;;;;;;5032559;28;20053;-69
2022/02/16 03:33:25;;;;;;;3.47;1.05;;;11.30;99.90;;;;;;5025672;28;20560;-70
2022/02/16 03:35:52;;;;;;;4.00;0.98;;;11.40;99.90;;;;;;5017997;28;20057;-69
2022/02/16 03:38:19;;;;;;;3.20;1.40;;;11.40;99.90;;;;;;5031349;28;20091;-69
2022/02/16 03:40:46;;;;;;;2.75;1.17;;;11.40;99.90;;;;;;5019952;28;20057;-69
2022/02/16 03:43:12;;;;;;;3.58;1.35;;;11.40;99.90;;;;;;5013017;28;20054;-69
2022/02/16 03:45:39;;;;;;;2.13;0.90;;;11.40;99.90;;;;;;5003682;28;20124;-68
2022/02/16 03:48:06;;;;;;;1.80;1.10;;;11.40;99.90;;;;;;5028161;28;20061;-69
2022/02/16 03:50:33;;;;;;;5.00;1.30;;;11.50;99.90;;;;;;5013545;28;20045;-69
2022/02/16 03:53:00;;;;;;;3.80;1.20;;;11.50;99.90;;;;;;5013481;28;20057;-69
2022/02/16 03:55:27;;;;;;;4.60;1.45;;;11.50;99.90;;;;;;5013032;28;20064;-69
2022/02/16 03:57:56;;;;;;;3.95;1.42;;;11.60;99.90;;;;;;5011835;28;20082;-69
2022/02/16 04:00:23;;;;;;;2.20;1.25;;;11.60;99.90;;;;;;5013920;28;20054;-69
2022/02/16 04:02:52;;;;;;;3.45;1.25;;;11.60;99.90;;;;;;5013047;28;20057;-69
2022/02/16 04:05:19;;;;;;;1.80;1.10;;;11.60;99.90;;;;;;5016238;28;20099;-69
2022/02/16 04:07:46;;;;;;;4.38;1.10;;;11.60;99.90;;;;;;5028543;28;20053;-69
2022/02/16 04:10:13;;;;;;;2.83;1.33;;;11.70;99.90;;;;;;5027558;28;20068;-69
2022/02/16 04:12:40;;;;;;;2.75;0.82;;;11.70;99.90;;;;;;5030111;28;20041;-69
2022/02/16 04:15:08;;;;;;;3.70;1.10;;;11.70;99.90;;;;;;5027451;28;20050;-69
2022/02/16 04:17:35;;;;;;;2.03;1.17;;;11.70;99.90;;;;;;5020003;28;20042;-69
2022/02/16 04:20:02;;;;;;;4.90;1.65;;;11.80;99.90;;;;;;5027498;28;20042;-69
2022/02/16 04:22:30;;;;;;;5.63;1.25;;;11.80;99.90;;;;;;5017019;28;20042;-69
2022/02/16 04:24:57;;;;;;;4.72;1.02;;;11.70;99.90;;;;;;5013633;28;20046;-69
2022/02/16 04:27:25;;;;;;;3.13;0.93;;;11.80;99.90;;;;;;5020124;28;20476;-69
2022/02/16 04:29:52;;;;;;;2.20;0.93;;;11.80;99.90;;;;;;5028228;28;20049;-69
2022/02/16 04:32:19;;;;;;;2.15;0.88;;;11.80;99.90;;;;;;5031187;28;20485;-70
2022/02/16 04:34:45;;;;;;;1.73;0.70;;;11.80;99.90;;;;;;5032136;28;20489;-69
2022/02/16 04:37:12;;;;;;;3.17;0.93;;;11.80;99.90;;;;;;5019522;28;20061;-69
2022/02/16 04:39:39;;;;;;;3.53;1.08;;;11.80;99.90;;;;;;5015657;28;20049;-69
2022/02/16 04:42:06;;;;;;;1.40;0.70;;;11.90;99.90;;;;;;5021515;28;20051;-69
2022/02/16 04:44:33;;;;;;;3.53;1.05;;;11.90;99.90;;;;;;5016168;28;20053;-70
2022/02/16 04:47:00;;;;;;;1.98;0.70;;;11.90;99.90;;;;;;4994861;28;20046;-69
2022/02/16 04:49:28;;;;;;;1.50;0.50;;;11.90;99.90;;;;;;4997400;28;20050;-69
2022/02/16 04:51:55;;;;;;;2.60;0.68;;;11.90;99.90;;;;;;5027118;28;20512;-69
2022/02/16 04:54:22;;;;;;;3.53;0.80;;;12.00;99.90;;;;;;5023090;28;20061;-69
2022/02/16 04:56:49;;;;;;;2.13;0.73;;;12.00;99.90;;;;;;5025853;28;20050;-69
2022/02/16 04:59:16;;;;;;;1.45;0.73;;;12.00;99.90;;;;;;5013253;28;20057;-70
2022/02/16 05:01:43;;;;;;;1.52;0.70;;;12.00;99.90;;;;;;5013139;28;20481;-69
2022/02/16 05:04:10;;;;;;;1.42;0.70;;;12.00;99.90;;;;;;5025510;28;20057;-69
2022/02/16 05:06:42;;;;;;;1.05;0.50;;;12.00;99.90;;;;;;5014717;28;20054;-70
2022/02/16 05:09:09;;;;;;;4.78;1.50;;;12.10;99.90;;;;;;5024953;28;20053;-70
2022/02/16 05:11:36;;;;;;;0.85;0.47;;;12.10;99.90;;;;;;5011921;28;20049;-70
2022/02/16 05:14:03;;;;;;;0.60;0.32;;;12.10;99.90;;;;;;5026992;28;20050;-69
2022/02/16 05:16:30;;;;;;;2.00;0.93;;;12.10;99.90;;;;;;5013301;28;20049;-69
2022/02/16 05:18:59;;;;;;;1.55;0.55;;;12.10;99.90;;;;;;5011707;28;20045;-69
2022/02/16 05:21:26;;;;;;;1.77;0.57;;;12.10;99.90;;;;;;5043120;28;20125;-69
2022/02/16 05:23:54;;;;;;;0.75;0.57;;;12.10;99.90;;;;;;4996188;28;20088;-69
2022/02/16 05:26:21;;;;;;;1.13;0.70;;;12.10;99.90;;;;;;5024849;28;20061;-69
2022/02/16 05:28:48;;;;;;;2.10;1.15;;;12.10;99.90;;;;;;5030483;28;20053;-69
2022/02/16 05:31:15;;;;;;;0.90;0.55;;;12.10;99.90;;;;;;5019025;28;20481;-69
2022/02/16 05:33:42;;;;;;;1.23;0.50;;;12.10;99.90;;;;;;5011616;28;20053;-70
2022/02/16 05:36:09;;;;;;;1.75;0.60;;;12.10;99.90;;;;;;5026828;28;20057;-69
2022/02/16 05:38:36;;;;;;;3.40;1.00;;;12.00;99.90;;;;;;5011817;28;20061;-69
2022/02/16 05:41:03;;;;;;;1.60;0.63;;;12.00;99.90;;;;;;5012856;28;20057;-69
2022/02/16 05:43:30;;;;;;;1.40;0.50;;;12.00;99.90;;;;;;5043109;28;20050;-69
2022/02/16 05:45:57;;;;;;;0.77;0.57;;;12.00;99.90;;;;;;5012784;28;20405;-71
2022/02/16 05:48:23;;;;;;;1.50;0.50;;;12.00;99.90;;;;;;5013004;28;20100;-69
2022/02/16 05:50:50;;;;;;;0.95;0.60;;;12.00;99.90;;;;;;5010540;28;20108;-69
2022/02/16 05:53:17;;;;;;;2.47;1.13;;;12.00;99.90;;;;;;5014214;28;20092;-69
2022/02/16 05:55:44;;;;;;;1.67;0.60;;;12.00;99.90;;;;;;5029826;28;20066;-69
2022/02/16 05:58:13;;;;;;;0.75;0.45;;;12.00;99.90;;;;;;5020869;28;20045;-69
2022/02/16 06:00:39;;;;;;;0.65;0.40;;;12.00;99.90;;;;;;5028834;28;20041;-70
2022/02/16 06:03:08;;;;;;;0.83;0.47;;;12.00;99.90;;;;;;5016847;28;20069;-69
2022/02/16 06:05:35;;;;;;;1.73;0.60;;;12.00;99.90;;;;;;5023203;28;20291;-70
2022/02/16 06:08:02;;;;;;;1.35;0.77;;;12.10;99.90;;;;;;5048538;28;20061;-69
2022/02/16 06:10:30;;;;;;;0.68;0.30;;;12.10;99.90;;;;;;5025818;28;20041;-70
2022/02/16 06:13:00;;;;;;;3.33;1.00;;;12.10;99.90;;;;;;5009280;28;20046;-70
2022/02/16 06:15:28;;;;;;;2.05;0.60;;;12.10;99.90;;;;;;5028933;28;20053;-70
2022/02/16 06:17:55;;;;;;;0.85;0.30;;;12.10;99.90;;;;;;5016152;28;20042;-69
2022/02/16 06:20:22;;;;;;;2.45;0.40;;;12.10;99.90;;;;;;5020110;28;20053;-69
2022/02/16 06:22:52;;;;;;;1.25;0.47;;;12.10;99.90;;;;;;5018446;28;20045;-70
2022/02/16 06:25:19;;;;;;;;;;;12.10;99.90;;;;;;5033680;28;20068;-70
2022/02/16 06:27:46;;;;;;;0.90;0.70;;;12.10;99.90;;;;;;5034508;28;20383;-70
2022/02/16 06:30:13;;;;;;;1.60;0.93;;;12.20;99.90;;;;;;5020737;28;20072;-70
2022/02/16 06:32:39;;;;;;;1.85;0.50;;;12.20;99.90;;;;;;5006227;28;20045;-70
2022/02/16 06:35:09;;;;;;;1.70;0.68;;;12.20;99.90;;;;;;5024159;28;20465;-70
2022/02/16 06:37:36;;;;;;;1.23;0.90;;;12.20;99.90;;;;;;5016665;28;20060;-70
2022/02/16 06:40:04;;;;;;;1.92;1.15;;;12.20;99.90;;;;;;5021745;28;20050;-71
2022/02/16 06:42:32;;;;;;;1.80;0.88;;;12.30;99.90;;;;;;5023661;28;20049;-69
2022/02/16 06:44:59;;;;;;;0.77;0.70;;;12.30;99.90;;;;;;5027882;28;20061;-68
2022/02/16 06:47:26;;;;;;;1.48;1.00;;;12.30;99.90;;;;;;5021063;28;20507;-69
2022/02/16 06:49:53;;;;;;;1.30;0.60;;;12.30;99.90;;;;;;5034206;28;20053;-69
2022/02/16 06:52:19;;;;;;;1.70;0.60;;;12.20;99.90;;;;;;5022094;28;20436;-70
2022/02/16 06:54:47;;;;;;;0.60;0.50;;;12.20;99.90;;;;;;5014031;28;20537;-71
2022/02/16 06:57:14;;;;;;;1.70;1.25;;;12.20;99.90;;;;;;5015451;28;20064;-70
2022/02/16 06:59:41;;;;;;;0.50;0.50;;;12.20;99.90;;;;;;5021965;28;20497;-69
2022/02/16 07:02:08;;;;;;;2.47;1.40;;;12.20;99.90;;;;;;5020503;28;20050;-69
2022/02/16 07:04:35;;;;;;;1.55;0.60;;;12.20;99.90;;;;;;5020818;28;20050;-69
2022/02/16 07:07:07;;;;;;;1.35;0.80;;;12.20;99.90;;;;;;5044798;28;20050;-66
2022/02/16 07:09:35;;;;;;;75.30;56.40;;;12.20;99.90;;;;;;5032545;28;20057;-66
2022/02/16 07:12:02;;;;;;;50.22;43.65;;;12.20;99.90;;;;;;5032168;28;20507;-69
2022/02/16 07:14:30;;;;;;;9.85;7.07;;;12.20;99.90;;;;;;5025205;28;20058;-68
2022/02/16 07:16:57;;;;;;;4.32;3.25;;;12.20;99.90;;;;;;5018245;28;20046;-68
2022/02/16 07:19:26;;;;;;;3.65;1.58;;;12.20;99.90;;;;;;5016934;28;20100;-68
2022/02/16 07:21:53;;;;;;;4.72;1.42;;;12.20;99.90;;;;;;5019660;28;20046;-68
2022/02/16 07:24:22;;;;;;;1.90;0.95;;;12.20;99.90;;;;;;5016308;28;20042;-68
2022/02/16 07:26:49;;;;;;;3.42;1.92;;;12.20;99.90;;;;;;5006159;28;20050;-66
2022/02/16 07:29:16;;;;;;;3.72;1.45;;;12.20;99.90;;;;;;5001271;28;20069;-68
2022/02/16 07:31:43;;;;;;;6.22;1.75;;;12.20;99.90;;;;;;5012839;28;20482;-68
2022/02/16 07:34:09;;;;;;;6.80;1.75;;;12.20;99.90;;;;;;5012801;28;20057;-68
2022/02/16 07:36:36;;;;;;;7.40;2.13;;;12.20;99.90;;;;;;5013820;28;20065;-69
2022/02/16 07:39:03;;;;;;;7.28;2.55;;;12.20;99.90;;;;;;5044903;28;20050;-75
2022/02/16 07:41:30;;;;;;;47.03;37.58;;;12.20;99.90;;;;;;5030135;28;20440;-70
2022/02/16 07:43:57;;;;;;;29.23;19.48;;;12.20;99.90;;;;;;5016071;28;20065;-68
2022/02/16 07:46:26;;;;;;;11.95;4.47;;;12.30;99.90;;;;;;5015957;28;20046;-69
2022/02/16 07:48:53;;;;;;;13.30;4.18;;;12.30;99.90;;;;;;5015218;28;20053;-69
2022/02/16 07:51:20;;;;;;;14.82;3.92;;;12.30;99.90;;;;;;5013628;28;20049;-69
2022/02/16 07:53:48;;;;;;;18.88;5.60;;;12.30;99.90;;;;;;5012405;28;20050;-69
2022/02/16 07:56:15;;;;;;;19.30;5.18;;;12.30;99.90;;;;;;5011750;28;20517;-69
2022/02/16 07:58:41;;;;;;;19.98;4.50;;;12.30;99.90;;;;;;5044890;28;20533;-68
2022/02/16 08:01:08;;;;;;;19.92;5.53;;;12.40;99.90;;;;;;5027926;28;20042;-69
2022/02/16 08:03:35;;;;;;;19.35;5.10;;;12.40;99.90;;;;;;5011729;28;20050;-70
2022/02/16 08:06:03;;;;;;;19.00;5.65;;;12.40;99.90;;;;;;5012023;28;20452;-69
2022/02/16 08:08:31;;;;;;;19.83;4.95;;;12.40;99.90;;;;;;5011505;28;20551;-69
2022/02/16 08:10:58;;;;;;;21.75;6.65;;;12.40;99.90;;;;;;5028017;28;20049;-70
2022/02/16 08:13:25;;;;;;;23.20;6.97;;;12.50;99.90;;;;;;5012796;28;20493;-69
2022/02/16 08:15:55;;;;;;;25.73;6.90;;;12.50;99.90;;;;;;5027287;28;20086;-69
2022/02/16 08:18:24;;;;;;;21.50;6.32;;;12.50;99.90;;;;;;5043928;28;20046;-67
2022/02/16 08:20:51;;;;;;;25.60;6.60;;;12.50;99.90;;;;;;5024844;28;20049;-66
2022/02/16 08:23:18;;;;;;;24.95;6.03;;;12.50;99.90;;;;;;5013217;28;20056;-70
2022/02/16 08:25:45;;;;;;;21.45;6.30;;;12.50;99.90;;;;;;5013297;28;20049;-68
2022/02/16 08:28:12;;;;;;;23.27;5.93;;;12.40;99.90;;;;;;5010978;28;20489;-68
2022/02/16 08:30:38;;;;;;;18.40;6.00;;;12.40;99.90;;;;;;5013048;28;20046;-66
2022/02/16 08:33:11;;;;;;;20.55;5.55;;;12.40;99.90;;;;;;5013013;28;20053;-66
2022/02/16 08:35:38;;;;;;;17.48;6.53;;;12.40;99.90;;;;;;5025752;28;20045;-68
2022/02/16 08:38:05;;;;;;;18.67;5.75;;;12.30;99.90;;;;;;5018661;28;20056;-70
2022/02/16 08:40:32;;;;;;;20.98;7.35;;;12.30;99.90;;;;;;5012184;28;20045;-69
2022/02/16 08:43:19;;;;;;;39.90;23.00;;;12.30;99.90;;;;;;5006374;28;20515;-69
2022/02/16 08:45:46;;;;;;;51.50;27.42;;;12.30;99.90;;;;;;4997561;28;20068;-73
2022/02/16 08:48:13;;;;;;;31.98;8.88;;;12.30;99.90;;;;;;5011595;28;20045;-66
2022/02/16 08:50:40;;;;;;;26.42;8.40;;;12.30;99.90;;;;;;5014241;28;20061;-67
2022/02/16 08:53:07;;;;;;;26.88;6.75;;;12.20;99.90;;;;;;5004174;28;20741;-66
2022/02/16 08:55:34;;;;;;;23.35;7.47;;;12.20;99.90;;;;;;5002064;28;20069;-66
2022/02/16 08:58:01;;;;;;;26.65;6.32;;;12.30;99.90;;;;;;5015751;28;20046;-70
2022/02/16 09:00:28;;;;;;;27.65;9.20;;;12.30;99.90;;;;;;5011279;28;20061;-66
2022/02/16 09:02:55;;;;;;;23.52;7.30;;;12.30;99.90;;;;;;5012089;28;20129;-66
2022/02/16 09:05:22;;;;;;;31.73;7.35;;;12.40;99.90;;;;;;5043806;28;20046;-64
2022/02/16 09:07:49;;;;;;;26.05;8.02;;;12.40;99.90;;;;;;5012177;28;20059;-65
2022/02/16 09:10:16;;;;;;;24.90;7.68;;;12.40;99.90;;;;;;5026977;28;20042;-66
2022/02/16 09:12:45;;;;;;;29.40;8.38;;;12.40;99.90;;;;;;5012403;28;20049;-65
2022/02/16 09:15:12;;;;;;;21.55;7.20;;;12.50;99.90;;;;;;5010061;28;20057;-66
2022/02/16 09:17:39;;;;;;;29.83;9.40;;;12.60;99.90;;;;;;5011032;28;20057;-66
2022/02/16 09:20:07;;;;;;;27.73;8.48;;;12.70;99.90;;;;;;5024415;28;20041;-68
2022/02/16 09:22:35;;;;;;;30.13;8.68;;;12.70;99.90;;;;;;5022088;28;20448;-67
2022/02/16 09:25:02;;;;;;;27.60;9.10;;;12.70;99.90;;;;;;5013054;28;20038;-70
2022/02/16 09:27:33;;;;;;;30.73;7.93;;;12.80;99.90;;;;;;4994667;28;20405;-77
2022/02/16 09:30:01;;;;;;;24.27;7.82;;;12.80;99.90;;;;;;5021507;28;20054;-71
2022/02/16 09:32:32;;;;;;;29.40;9.57;;;12.90;99.90;;;;;;5011881;28;20489;-72
2022/02/16 09:34:59;;;;;;;32.05;8.13;;;12.90;99.90;;;;;;5011820;28;20145;-70
2022/02/16 09:37:27;;;;;;;30.05;8.43;;;13.00;99.90;;;;;;5045991;28;20125;-67
2022/02/16 09:39:54;;;;;;;27.92;8.13;;;13.00;99.90;;;;;;5030886;28;20774;-71
2022/02/16 09:42:21;;;;;;;31.73;9.27;;;13.10;99.90;;;;;;5015274;28;20056;-73
2022/02/16 09:44:56;;;;;;;25.48;7.72;;;13.10;99.90;;;;;;5012318;28;20129;-72
2022/02/16 09:47:24;;;;;;;26.75;7.30;;;13.20;99.90;;;;;;5043314;28;20049;-75
2022/02/16 09:49:51;;;;;;;34.95;9.43;;;13.20;99.90;;;;;;5013900;28;20556;-75
2022/02/16 09:52:20;;;;;;;26.65;9.07;;;13.30;99.90;;;;;;5010709;28;20056;-74
2022/02/16 09:54:47;;;;;;;23.95;8.40;;;13.30;99.90;;;;;;5044261;28;20484;-68
2022/02/16 09:57:14;;;;;;;27.38;8.00;;;13.30;99.90;;;;;;5015762;28;20050;-74
2022/02/16 09:59:41;;;;;;;25.23;7.90;;;13.30;99.90;;;;;;5013674;28;20061;-75
2022/02/16 10:02:12;;;;;;;30.42;8.13;;;13.40;99.90;;;;;;5015672;28;20045;-73
2022/02/16 10:04:41;;;;;;;27.77;7.80;;;13.40;99.90;;;;;;5021940;28;20041;-67
2022/02/16 10:07:21;;;;;;;29.23;8.82;;;13.50;99.90;;;;;;5024441;28;20038;-71
2022/02/16 10:09:48;;;;;;;28.98;9.25;;;13.50;99.90;;;;;;5013299;28;20084;-74
2022/02/16 10:12:15;;;;;;;25.08;8.57;;;13.50;99.90;;;;;;5030973;28;20492;-69
2022/02/16 10:14:42;;;;;;;28.92;9.23;;;13.60;99.90;;;;;;5030155;28;20264;-74
2022/02/16 10:17:21;;;;;;;25.23;9.95;;;13.60;99.90;;;;;;4998930;28;20489;-69
2022/02/16 10:19:52;;;;;;;24.27;7.40;;;13.60;99.90;;;;;;5016492;28;20400;-71
2022/02/16 10:22:24;;;;;;;29.65;9.07;;;13.70;99.90;;;;;;5015354;28;20050;-71
2022/02/16 10:24:51;;;;;;;29.83;9.65;;;13.70;99.90;;;;;;5021461;28;20056;-72
2022/02/16 10:27:18;;;;;;;24.50;6.70;;;13.70;99.90;;;;;;5026282;28;20045;-69
2022/02/16 10:29:46;;;;;;;29.05;11.18;;;13.70;99.90;;;;;;5026069;28;20057;-69
2022/02/16 10:32:31;;;;;;;26.67;8.82;;;13.80;99.90;;;;;;5014075;28;20053;-69
2022/02/16 10:34:58;;;;;;;25.67;8.90;;;13.90;99.90;;;;;;5023419;28;20448;-70
2022/02/16 10:37:30;;;;;;;27.10;6.95;;;13.80;99.90;;;;;;5033238;28;20053;-66
2022/02/16 10:40:11;;;;;;;27.15;8.35;;;13.80;99.90;;;;;;5032571;28;20056;-68
2022/02/16 10:42:38;;;;;;;33.88;8.88;;;13.80;99.90;;;;;;5024824;28;20057;-68
2022/02/16 10:45:08;;;;;;;33.05;10.10;;;13.80;99.90;;;;;;5019535;28;20548;-68
2022/02/16 10:48:02;;;;;;;26.45;10.00;;;13.80;99.90;;;;;;4997310;28;20041;-70
2022/02/16 10:50:39;;;;;;;23.60;7.72;;;13.80;99.90;;;;;;5014802;28;20053;-70
2022/02/16 10:53:07;;;;;;;27.35;9.18;;;13.70;99.90;;;;;;4982735;28;20061;-70
2022/02/16 10:55:48;;;;;;;28.63;8.48;;;13.70;99.90;;;;;;5029847;28;20046;-68
2022/02/16 10:58:18;;;;;;;30.92;8.95;;;13.70;99.90;;;;;;5017747;28;20050;-69
2022/02/16 11:00:47;;;;;;;26.23;8.88;;;13.70;99.90;;;;;;4997965;28;20050;-68
2022/02/16 11:03:40;;;;;;;37.50;8.75;;;13.70;99.90;;;;;;5019177;28;20050;-65
2022/02/16 11:06:07;;;;;;;29.88;9.82;;;13.70;99.90;;;;;;4986580;28;20495;-72
2022/02/16 11:08:36;;;;;;;27.50;8.75;;;13.70;99.90;;;;;;5026101;28;20111;-68
2022/02/16 11:11:20;;;;;;;30.95;9.63;;;13.80;99.90;;;;;;5031134;28;20046;-67
2022/02/16 11:13:59;;;;;;;27.83;8.57;;;13.80;99.90;;;;;;5021816;28;20082;-73
2022/02/16 11:16:26;;;;;;;22.58;7.85;;;13.90;99.90;;;;;;5030891;28;20445;-67
2022/02/16 11:18:59;;;;;;;26.38;8.10;;;13.90;99.90;;;;;;5019209;28;20062;-66
2022/02/16 11:21:28;;;;;;;28.08;8.07;;;14.00;99.90;;;;;;5019450;28;20504;-72
2022/02/16 11:23:57;;;;;;;25.88;10.65;;;14.10;99.90;;;;;;5003739;28;20424;-71
2022/02/16 11:26:41;;;;;;;20.55;7.20;;;14.20;99.90;;;;;;5013593;28;20046;-67
2022/02/16 11:29:27;;;;;;;26.20;8.10;;;14.30;99.90;;;;;;4982941;28;20099;-66
2022/02/16 11:32:15;;;;;;;29.15;8.32;;;14.40;99.90;;;;;;5030709;28;20107;-69
2022/02/16 11:34:42;;;;;;;29.95;9.30;;;14.50;99.90;;;;;;5031590;28;20058;-72
2022/02/16 11:37:09;;;;;;;22.10;8.57;;;14.50;99.90;;;;;;5023921;28;20052;-72
2022/02/16 11:39:50;;;;;;;27.02;7.53;;;14.60;99.90;;;;;;5021714;28;20080;-70
2022/02/16 11:42:22;;;;;;;24.40;8.43;;;14.60;99.90;;;;;;5025953;28;20073;-71
2022/02/16 11:44:52;;;;;;;25.27;7.32;;;14.70;99.90;;;;;;5007925;28;20404;-69
2022/02/16 11:47:34;;;;;;;20.05;7.63;;;14.80;99.90;;;;;;5022029;28;20051;-69
2022/02/16 11:50:14;;;;;;;20.17;6.00;;;14.90;99.90;;;;;;5013129;28;20058;-75
2022/02/16 11:52:50;;;;;;;;;;;15.00;99.90;;;;;;5021305;28;20128;-70
2022/02/16 11:55:27;;;;;;;16.05;6.03;;;14.90;99.90;;;;;;5013286;28;19925;-76
2022/02/16 11:58:04;;;;;;;16.80;4.28;;;15.00;99.90;;;;;;5016155;28;20095;-70
2022/02/16 12:00:52;;;;;;;12.88;3.95;;;15.00;99.90;;;;;;5015453;28;20059;-75
2022/02/16 12:03:24;;;;;;;9.50;4.07;;;15.00;99.90;;;;;;5014217;28;20044;-67
2022/02/16 12:06:03;;;;;;;13.27;4.03;;;15.10;99.90;;;;;;5013312;28;20054;-52
2022/02/16 12:08:43;;;;;;;70.63;31.67;;;15.40;99.90;;;;;;5012649;28;20054;-75
2022/02/16 12:11:18;;;;;;;68.43;46.17;;;15.40;99.90;;;;;;5013631;28;20287;-71
2022/02/16 12:13:54;;;;;;;23.27;12.75;;;15.40;99.90;;;;;;5020849;28;20075;-73
2022/02/16 12:16:27;;;;;;;15.35;7.30;;;15.40;99.90;;;;;;5013283;28;20116;-71
2022/02/16 12:18:54;;;;;;;11.90;4.55;;;15.40;99.90;;;;;;5025587;28;20054;-75
2022/02/16 12:21:23;;;;;;;14.88;5.38;;;15.50;99.90;;;;;;5018136;28;20528;-71
2022/02/16 12:23:59;;;;;;;8.05;3.60;;;15.50;99.90;;;;;;5045282;28;20056;-71
2022/02/16 12:26:28;;;;;;;10.13;3.92;;;15.50;99.90;;;;;;5010692;28;20045;-67
2022/02/16 12:28:56;;;;;;;;;;;15.50;99.90;;;;;;5023023;28;20050;-70
2022/02/16 12:31:25;;;;;;;15.90;4.03;;;15.60;99.90;;;;;;5012579;28;20372;-69
2022/02/16 12:34:01;;;;;;;12.00;3.80;;;15.60;99.90;;;;;;5012655;28;20054;-66
2022/02/16 12:36:28;;;;;;;11.20;3.42;;;15.60;99.90;;;;;;5001467;28;20121;-66
2022/02/16 12:38:58;;;;;;;10.23;3.70;;;15.60;99.90;;;;;;5023036;28;20057;-64
2022/02/16 12:41:25;;;;;;;12.93;4.53;;;15.70;99.90;;;;;;5012327;28;20279;-64
2022/02/16 12:43:59;;;;;;;12.50;3.90;;;15.70;99.90;;;;;;4993973;28;20054;-64
2022/02/16 12:46:33;;;;;;;10.82;3.60;;;15.60;99.90;;;;;;5011364;28;20049;-69
2022/02/16 12:49:00;;;;;;;13.00;4.15;;;15.50;99.90;;;;;;4995962;28;20053;-70
2022/02/16 12:51:32;;;;;;;14.57;4.18;;;15.50;99.90;;;;;;4979553;28;20046;-70